Time;durP1;ratioP1;P1;durP2;ratioP2;P2;SDS_P1;SDS_P2;PMS_P1;PMS_P2;Temp;Humidity;BMP_temperature;BMP_pressure;BME280_temperature;BME280_humidity;BME280_pressure;Samples;Min_cycle;Max_cycle;Signal;HPM_P1;HPM_P2
2023/01/04 00:00:33;;;;;;;0.10;0.10;;;;;;;13.32;79.20;99655.97;7354480;19;20027;-60
2023/01/04 00:02:59;;;;;;;0.10;0.10;;;;;;;13.29;79.31;99645.66;7359233;19;20010;-59
2023/01/04 00:05:24;;;;;;;0.00;0.00;;;;;;;13.29;78.76;99641.25;7213486;19;2813006;-59
2023/01/04 00:07:49;;;;;;;0.10;0.10;;;;;;;13.27;79.12;99642.25;7355768;19;20425;-59
2023/01/04 00:10:15;;;;;;;0.10;0.10;;;;;;;13.28;79.09;99636.06;7360015;19;20014;-60
2023/01/04 00:12:40;;;;;;;0.10;0.10;;;;;;;13.26;79.24;99635.31;7357170;19;20010;-59
2023/01/04 00:15:06;;;;;;;0.00;0.00;;;;;;;13.26;79.08;99651.91;7357491;19;20019;-60
2023/01/04 00:17:32;;;;;;;0.10;0.10;;;;;;;13.24;79.11;99638.03;7355749;19;20554;-60
2023/01/04 00:19:58;;;;;;;0.10;0.10;;;;;;;13.26;78.87;99628.28;7354368;19;20015;-60
2023/01/04 00:22:23;;;;;;;0.00;0.00;;;;;;;13.26;79.28;99635.31;7358157;19;20470;-60
2023/01/04 00:24:49;;;;;;;0.00;0.00;;;;;;;13.27;78.84;99631.75;7349085;19;20006;-59
2023/01/04 00:27:14;;;;;;;0.00;0.00;;;;;;;13.26;78.98;99646.66;7350665;19;20006;-60
2023/01/04 00:29:39;;;;;;;0.00;0.00;;;;;;;13.23;79.03;99631.94;7354374;19;20010;-60
2023/01/04 00:32:05;;;;;;;0.10;0.10;;;;;;;13.28;78.59;99629.09;7358365;19;20002;-60
2023/01/04 00:34:30;;;;;;;0.10;0.10;;;;;;;13.26;78.92;99659.75;7357133;19;20374;-60
2023/01/04 00:36:56;;;;;;;0.10;0.10;;;;;;;13.27;78.47;99663.22;7357043;19;20010;-60
2023/01/04 00:39:21;;;;;;;0.10;0.10;;;;;;;13.26;78.75;99658.91;7358978;19;20806;-59
2023/01/04 00:41:53;;;;;;;0.10;0.10;;;;;;;13.28;79.11;99668.41;7356302;19;20022;-60
2023/01/04 00:44:20;;;;;;;0.00;0.00;;;;;;;13.27;78.70;99648.34;7354328;19;20010;-60
2023/01/04 00:46:47;;;;;;;0.00;0.00;;;;;;;13.24;79.15;99651.97;7356088;19;20030;-59
2023/01/04 00:49:12;;;;;;;0.10;0.10;;;;;;;13.30;78.65;99657.84;7358791;19;20018;-60
2023/01/04 00:51:40;;;;;;;0.10;0.10;;;;;;;13.31;78.92;99659.53;7356248;19;20018;-60
2023/01/04 00:54:06;;;;;;;;;;;;;;;13.35;79.11;99668.94;7360705;19;20018;-59
2023/01/04 00:56:32;;;;;;;0.00;0.00;;;;;;;13.36;78.49;99660.16;7352946;19;19919;-60
2023/01/04 00:58:59;;;;;;;0.00;0.00;;;;;;;13.38;77.95;99676.63;7358201;19;20074;-60
2023/01/04 01:01:27;;;;;;;0.10;0.10;;;;;;;13.38;78.16;99681.88;7359341;19;20034;-60
2023/01/04 01:03:56;;;;;;;0.00;0.00;;;;;;;13.38;78.52;99669.66;7358965;19;20011;-59
2023/01/04 01:06:21;;;;;;;0.10;0.10;;;;;;;13.38;78.19;99692.38;7355002;19;20010;-59
2023/01/04 01:08:47;;;;;;;0.10;0.10;;;;;;;13.38;78.13;99682.75;7359364;19;22539;-59
2023/01/04 01:11:13;;;;;;;0.10;0.10;;;;;;;13.38;78.04;99702.84;7357068;19;20027;-59
2023/01/04 01:13:38;;;;;;;0.10;0.10;;;;;;;13.34;77.96;99693.47;7360503;19;20195;-60
2023/01/04 01:16:06;;;;;;;0.10;0.10;;;;;;;13.42;77.40;99707.88;7355703;19;20017;-59
2023/01/04 01:18:32;;;;;;;;;;;;;;;13.44;77.59;99718.31;7366356;19;20027;-59
2023/01/04 01:20:58;;;;;;;0.10;0.10;;;;;;;13.39;77.45;99715.06;7364662;19;19919;-60
2023/01/04 01:23:23;;;;;;;0.10;0.10;;;;;;;13.40;77.45;99690.53;7364825;19;20017;-59
2023/01/04 01:25:48;;;;;;;0.10;0.10;;;;;;;13.41;77.38;99760.41;7361742;19;20018;-60
2023/01/04 01:28:14;;;;;;;0.10;0.10;;;;;;;13.40;77.26;99727.25;7364523;19;20021;-60
2023/01/04 01:30:40;;;;;;;0.10;0.10;;;;;;;13.39;77.01;99722.94;7363111;19;20007;-60
2023/01/04 01:33:06;;;;;;;0.10;0.10;;;;;;;13.37;76.94;99723.00;7362458;19;20015;-60
2023/01/04 01:35:33;;;;;;;0.10;0.10;;;;;;;13.36;77.29;99736.19;7363193;19;20038;-59
2023/01/04 01:37:58;;;;;;;0.05;0.05;;;;;;;13.31;76.92;99727.69;7362476;19;20010;-60
2023/01/04 01:40:23;;;;;;;0.10;0.10;;;;;;;13.33;77.13;99736.31;7364965;19;20027;-59
2023/01/04 01:42:49;;;;;;;0.10;0.10;;;;;;;13.32;77.36;99729.41;7365565;19;20006;-60
2023/01/04 01:45:32;;;;;;;0.10;0.10;;;;;;;13.33;77.52;99737.22;7356736;19;20530;-60
2023/01/04 01:48:06;;;;;;;0.10;0.10;;;;;;;13.32;77.29;99726.78;7364625;19;20014;-60
2023/01/04 01:51:00;;;;;;;0.10;0.10;;;;;;;13.32;77.25;99734.63;7365698;19;20868;-59
2023/01/04 01:53:27;;;;;;;0.10;0.10;;;;;;;13.27;77.06;99736.63;7260706;19;2004205;-59
2023/01/04 01:55:55;;;;;;;0.10;0.10;;;;;;;13.27;76.57;99757.59;7363407;19;20022;-59
2023/01/04 01:58:25;;;;;;;0.08;0.08;;;;;;;13.24;76.21;99735.88;7359042;19;20070;-60
2023/01/04 02:00:50;;;;;;;0.00;0.00;;;;;;;13.18;75.92;99746.63;7361205;19;20022;-59
2023/01/04 02:03:22;;;;;;;0.10;0.10;;;;;;;13.20;76.20;99734.28;7363615;19;20705;-60
2023/01/04 02:05:52;;;;;;;0.10;0.10;;;;;;;13.19;76.33;99756.19;7361763;19;20592;-59
2023/01/04 02:08:21;;;;;;;0.10;0.10;;;;;;;13.15;76.46;99765.13;7362794;19;20010;-59
2023/01/04 02:10:46;;;;;;;0.10;0.10;;;;;;;13.07;75.95;99763.78;7362635;19;20019;-59
2023/01/04 02:13:16;;;;;;;0.10;0.10;;;;;;;13.14;76.21;99784.41;7359383;19;20010;-59
2023/01/04 02:16:01;;;;;;;0.10;0.10;;;;;;;13.12;76.49;99791.47;7364110;19;20018;-59
2023/01/04 02:18:36;;;;;;;0.10;0.10;;;;;;;13.14;76.27;99778.31;7361045;19;20014;-59
2023/01/04 02:21:08;;;;;;;0.10;0.10;;;;;;;13.13;76.19;99772.22;7364327;19;20010;-59
2023/01/04 02:23:39;;;;;;;0.10;0.10;;;;;;;13.11;76.56;99753.06;7361888;19;20035;-58
2023/01/04 02:26:19;;;;;;;0.10;0.10;;;;;;;13.06;76.17;99743.75;7359551;19;20015;-57
2023/01/04 02:29:10;;;;;;;0.08;0.08;;;;;;;13.10;76.58;99766.28;7360553;19;21402;-60
2023/01/04 02:31:39;;;;;;;0.10;0.10;;;;;;;12.97;76.22;99751.13;7361812;19;20018;-59
2023/01/04 02:34:29;;;;;;;0.10;0.10;;;;;;;13.05;76.34;99770.88;7363117;19;20022;-60
2023/01/04 02:37:19;;;;;;;0.10;0.10;;;;;;;13.02;76.59;99774.47;7361532;19;21102;-59
2023/01/04 02:39:50;;;;;;;0.10;0.10;;;;;;;12.96;76.42;99775.63;7363491;19;20484;-60
2023/01/04 02:45:40;;;;;;;0.10;0.10;;;;;;;12.93;76.70;99781.03;7258342;19;2004632;-59
2023/01/04 02:50:56;;;;;;;0.10;0.10;;;;;;;12.93;76.87;99780.19;7359922;19;20053;-59
2023/01/04 02:53:28;;;;;;;0.10;0.10;;;;;;;12.91;77.19;99764.50;7363378;19;20088;-59
2023/01/04 02:56:34;;;;;;;0.10;0.10;;;;;;;12.96;77.80;99754.66;7361408;19;20014;-59
2023/01/04 02:58:59;;;;;;;0.03;0.03;;;;;;;12.93;77.61;99764.47;7251419;19;2004511;-59
2023/01/04 03:07:49;;;;;;;0.10;0.10;;;;;;;13.00;76.92;99752.75;7261139;19;2004764;-60
2023/01/04 03:10:44;;;;;;;0.10;0.10;;;;;;;13.01;77.15;99762.31;7360796;19;20038;-59
2023/01/04 03:13:16;;;;;;;0.10;0.10;;;;;;;12.97;76.91;99750.25;7256505;19;2004128;-59
2023/01/04 03:15:49;;;;;;;0.00;0.00;;;;;;;12.94;76.88;99755.66;7360640;19;20046;-59
2023/01/04 03:18:21;;;;;;;0.00;0.00;;;;;;;12.82;77.06;99735.28;7361291;19;21088;-59
2023/01/04 03:20:51;;;;;;;0.00;0.00;;;;;;;12.87;76.84;99751.63;7359492;19;20017;-60
2023/01/04 03:37:36;;;;;;;0.00;0.00;;;;;;;12.79;77.78;99767.72;7359549;19;20027;-59
2023/01/04 03:49:28;;;;;;;0.10;0.10;;;;;;;12.91;77.72;99788.09;7259316;19;2004637;-59
2023/01/04 03:51:57;;;;;;;0.10;0.10;;;;;;;12.93;77.20;99785.44;7356991;19;20010;-59
2023/01/04 03:54:28;;;;;;;0.00;0.00;;;;;;;12.95;77.40;99826.34;7354922;19;20367;-58
2023/01/04 03:56:55;;;;;;;0.10;0.10;;;;;;;12.97;76.76;99773.84;7352993;19;20373;-59
2023/01/04 03:59:22;;;;;;;0.03;0.03;;;;;;;13.03;76.67;99802.41;7360494;19;20014;-59
2023/01/04 04:01:47;;;;;;;0.10;0.10;;;;;;;13.04;76.75;99777.06;7357910;19;20018;-59
2023/01/04 04:09:40;;;;;;;0.10;0.10;;;;;;;12.93;76.12;99756.59;7355213;19;20031;-59
2023/01/04 04:12:06;;;;;;;0.10;0.10;;;;;;;13.04;76.13;99787.53;7362154;19;22396;-59
2023/01/04 04:14:31;;;;;;;0.10;0.10;;;;;;;13.05;76.21;99811.03;7358090;19;20114;-59
2023/01/04 04:16:57;;;;;;;0.08;0.08;;;;;;;13.04;76.04;99798.88;7333606;19;20010;-59
2023/01/04 04:19:22;;;;;;;0.08;0.08;;;;;;;13.04;75.55;99811.13;7348039;19;20756;-59
2023/01/04 04:21:47;;;;;;;0.10;0.10;;;;;;;13.04;75.54;99795.41;7357559;19;20022;-59
2023/01/04 04:24:22;;;;;;;0.10;0.10;;;;;;;13.05;75.38;99800.56;7360040;19;20006;-59
2023/01/04 04:26:47;;;;;;;0.10;0.10;;;;;;;12.99;75.85;99808.72;7360441;19;20038;-59
2023/01/04 04:29:12;;;;;;;0.10;0.10;;;;;;;12.99;75.55;99806.09;7361765;19;20015;-59
2023/01/04 04:31:38;;;;;;;0.10;0.10;;;;;;;12.97;75.36;99805.31;7358931;19;20011;-59
2023/01/04 04:34:03;;;;;;;0.10;0.10;;;;;;;12.97;74.91;99823.66;7359734;19;20006;-59
2023/01/04 04:36:29;;;;;;;0.10;0.10;;;;;;;12.98;74.78;99830.59;7361261;19;20019;-59
2023/01/04 04:38:54;;;;;;;0.10;0.10;;;;;;;12.96;74.70;99821.94;7358283;19;20010;-59
2023/01/04 04:41:38;;;;;;;0.03;0.03;;;;;;;12.96;75.32;99816.72;7358678;19;20014;-59
2023/01/04 04:44:23;;;;;;;0.00;0.00;;;;;;;12.98;75.61;99841.94;7360805;19;20930;-59
2023/01/04 04:46:49;;;;;;;0.00;0.00;;;;;;;12.98;74.75;99846.34;7358667;19;20937;-59
2023/01/04 04:49:15;;;;;;;0.10;0.10;;;;;;;12.97;74.99;99831.50;7359640;19;22536;-58
2023/01/04 04:51:42;;;;;;;0.10;0.10;;;;;;;12.95;74.68;99826.34;7362649;19;20853;-59
2023/01/04 04:54:09;;;;;;;0.00;0.00;;;;;;;12.95;74.47;99843.84;7364755;19;20025;-59
2023/01/04 04:56:35;;;;;;;0.10;0.10;;;;;;;12.91;74.25;99829.19;7365782;19;20002;-58
2023/01/04 04:59:04;;;;;;;0.08;0.08;;;;;;;12.95;74.32;99835.97;7362955;19;20030;-59
2023/01/04 05:01:29;;;;;;;0.10;0.10;;;;;;;12.93;74.47;99843.06;7364117;19;20006;-59
2023/01/04 05:03:55;;;;;;;0.00;0.00;;;;;;;12.92;74.42;99836.09;7363739;19;20022;-59
2023/01/04 05:06:21;;;;;;;0.10;0.10;;;;;;;12.92;74.25;99854.44;7362497;19;20015;-57
2023/01/04 05:08:46;;;;;;;0.00;0.00;;;;;;;12.91;74.43;99837.03;7364443;19;20014;-59
2023/01/04 05:11:13;;;;;;;0.00;0.00;;;;;;;12.87;74.43;99838.94;7363895;19;20006;-59
2023/01/04 05:13:39;;;;;;;0.00;0.00;;;;;;;12.90;74.22;99853.69;7365479;19;20784;-58
2023/01/04 05:16:06;;;;;;;0.10;0.10;;;;;;;12.87;74.00;99877.41;7362617;19;20019;-59
2023/01/04 05:18:32;;;;;;;0.10;0.10;;;;;;;12.86;74.12;99867.84;7364699;19;20357;-60
2023/01/04 05:20:57;;;;;;;0.10;0.10;;;;;;;12.84;74.22;99874.94;7361124;19;20017;-59
2023/01/04 05:23:23;;;;;;;0.10;0.10;;;;;;;12.80;74.16;99873.38;7363944;19;20801;-59
2023/01/04 05:26:00;;;;;;;0.10;0.10;;;;;;;12.82;74.30;99882.84;7363494;19;20002;-59
2023/01/04 05:28:25;;;;;;;0.10;0.10;;;;;;;12.78;74.18;99862.97;7362830;19;20006;-59
2023/01/04 05:30:55;;;;;;;0.10;0.10;;;;;;;12.80;73.80;99904.81;7364958;19;20006;-59
2023/01/04 05:33:29;;;;;;;0.10;0.10;;;;;;;12.82;74.11;99889.84;7364320;19;20029;-59
2023/01/04 05:35:57;;;;;;;0.10;0.10;;;;;;;12.80;73.37;99889.09;7364242;19;20035;-59
2023/01/04 05:38:22;;;;;;;0.08;0.08;;;;;;;12.78;73.01;99901.41;7363021;19;20885;-59
2023/01/04 05:40:49;;;;;;;0.10;0.10;;;;;;;12.78;73.22;99917.13;7366510;19;20024;-59
2023/01/04 05:43:15;;;;;;;0.10;0.10;;;;;;;12.73;73.19;99901.63;7362664;19;20010;-59
2023/01/04 05:45:47;;;;;;;0.10;0.10;;;;;;;12.72;73.52;99898.16;7364474;19;20010;-59
2023/01/04 05:48:13;;;;;;;0.03;0.03;;;;;;;12.68;73.47;99893.97;7358724;19;20455;-59
2023/01/04 05:50:38;;;;;;;0.10;0.10;;;;;;;12.69;73.54;99913.13;7365738;19;21450;-59
2023/01/04 05:53:05;;;;;;;0.00;0.00;;;;;;;12.65;73.47;99886.22;7362250;19;20048;-60
2023/01/04 05:55:31;;;;;;;0.10;0.10;;;;;;;12.50;73.11;99884.28;7365383;19;20031;-59
2023/01/04 05:57:57;;;;;;;0.00;0.00;;;;;;;12.62;73.35;99920.44;7360923;19;20588;-60
2023/01/04 06:00:22;;;;;;;0.10;0.10;;;;;;;12.59;73.33;99922.31;7364057;19;20022;-59
2023/01/04 06:02:48;;;;;;;0.10;0.10;;;;;;;12.57;73.15;99925.00;7363030;19;20007;-59
2023/01/04 06:05:13;;;;;;;0.00;0.00;;;;;;;12.54;73.64;99925.13;7365402;19;20026;-59
2023/01/04 06:07:39;;;;;;;0.10;0.10;;;;;;;12.53;73.61;99939.16;7357917;19;20023;-59
2023/01/04 06:10:06;;;;;;;0.03;0.03;;;;;;;12.53;74.16;99928.69;7364265;19;20459;-59
2023/01/04 06:12:32;;;;;;;0.10;0.10;;;;;;;12.40;73.52;99911.78;7362248;19;20042;-59
2023/01/04 06:14:57;;;;;;;0.00;0.00;;;;;;;12.51;74.04;99925.25;7364158;19;20007;-59
2023/01/04 06:17:23;;;;;;;0.00;0.00;;;;;;;12.53;73.76;99928.69;7363742;19;20018;-59
2023/01/04 06:19:48;;;;;;;0.00;0.00;;;;;;;12.54;73.74;99919.91;7364296;19;20600;-59
2023/01/04 06:22:13;;;;;;;0.00;0.00;;;;;;;12.56;73.64;99923.28;7363065;19;20363;-59
2023/01/04 06:24:39;;;;;;;0.10;0.10;;;;;;;12.57;73.69;99927.63;7362485;19;20007;-59
2023/01/04 06:27:04;;;;;;;0.10;0.10;;;;;;;12.60;73.20;99934.50;7364095;19;20035;-59
2023/01/04 06:29:30;;;;;;;0.10;0.10;;;;;;;12.58;73.42;99931.94;7360246;19;20010;-59
2023/01/04 06:31:55;;;;;;;0.10;0.10;;;;;;;12.59;73.11;99938.03;7362277;19;20361;-59
2023/01/04 06:34:21;;;;;;;0.10;0.10;;;;;;;12.57;73.34;99904.06;7362790;19;20027;-57
2023/01/04 06:36:46;;;;;;;0.10;0.10;;;;;;;12.53;72.82;99918.19;7363841;19;20022;-59
2023/01/04 06:39:11;;;;;;;0.10;0.10;;;;;;;12.51;73.41;99927.88;7360209;19;20020;-59
2023/01/04 06:41:37;;;;;;;0.00;0.00;;;;;;;12.50;73.40;99934.03;7362735;19;20010;-59
2023/01/04 06:44:03;;;;;;;0.00;0.00;;;;;;;12.49;73.36;99927.09;7363812;19;20125;-60
2023/01/04 06:46:28;;;;;;;0.00;0.00;;;;;;;12.50;72.84;99917.47;7359209;19;20010;-59
2023/01/04 06:48:54;;;;;;;0.03;0.03;;;;;;;12.40;73.04;99917.00;7362522;19;20027;-59
2023/01/04 06:51:20;;;;;;;0.00;0.00;;;;;;;12.49;72.96;99937.56;7360980;19;21098;-59
2023/01/04 06:53:45;;;;;;;0.10;0.10;;;;;;;12.48;73.49;99938.50;7363180;19;20676;-59
2023/01/04 06:56:11;;;;;;;0.00;0.00;;;;;;;12.49;73.44;99939.34;7357097;19;20022;-59
2023/01/04 06:58:36;;;;;;;0.10;0.10;;;;;;;12.51;73.69;99964.53;7352457;19;20014;-59
2023/01/04 07:01:02;;;;;;;0.00;0.00;;;;;;;12.53;73.35;99933.91;7362073;19;20453;-59
2023/01/04 07:03:28;;;;;;;0.10;0.10;;;;;;;12.54;73.15;99943.47;7357724;19;20724;-59
2023/01/04 07:05:53;;;;;;;0.10;0.10;;;;;;;12.54;72.66;99953.94;7360883;19;20018;-59
2023/01/04 07:08:19;;;;;;;0.10;0.10;;;;;;;12.57;73.09;99972.16;7359114;19;20035;-59
2023/01/04 07:10:45;;;;;;;0.03;0.03;;;;;;;12.56;73.01;99962.56;7359558;19;20030;-58
2023/01/04 07:13:11;;;;;;;0.10;0.10;;;;;;;12.57;72.86;99964.31;7358553;19;20014;-59
2023/01/04 07:15:36;;;;;;;0.00;0.00;;;;;;;12.57;72.52;99953.81;7359013;19;20761;-59
2023/01/04 07:18:02;;;;;;;0.10;0.10;;;;;;;12.58;72.72;99958.13;7359774;19;20014;-59
2023/01/04 07:20:27;;;;;;;0.10;0.10;;;;;;;12.59;72.54;99959.84;7355466;19;20089;-59
2023/01/04 07:22:53;;;;;;;0.10;0.10;;;;;;;12.57;72.47;99982.63;7360105;19;20092;-59
2023/01/04 07:25:18;;;;;;;0.10;0.10;;;;;;;12.57;72.71;99971.28;7358602;19;20014;-59
2023/01/04 07:27:44;;;;;;;0.10;0.10;;;;;;;12.56;72.85;99973.03;7358579;19;20019;-59
2023/01/04 07:30:10;;;;;;;0.00;0.00;;;;;;;12.58;72.61;99979.09;7360222;19;20377;-59
2023/01/04 07:32:35;;;;;;;0.00;0.00;;;;;;;12.56;72.65;99994.00;7358574;19;20023;-59
2023/01/04 07:35:01;;;;;;;0.00;0.00;;;;;;;12.59;72.67;99998.28;7358606;19;20017;-59
2023/01/04 07:37:26;;;;;;;0.10;0.10;;;;;;;12.58;72.29;100000.03;7357865;19;20018;-59
2023/01/04 07:39:52;;;;;;;0.00;0.00;;;;;;;12.60;72.52;99994.72;7357782;19;20033;-59
2023/01/04 07:42:18;;;;;;;0.08;0.08;;;;;;;12.61;72.06;99996.44;7360663;19;20782;-59
2023/01/04 07:44:44;;;;;;;0.10;0.10;;;;;;;12.63;72.59;100012.94;7356992;19;20007;-59
2023/01/04 07:47:10;;;;;;;0.10;0.10;;;;;;;12.60;72.69;100000.81;7360712;19;20025;-59
2023/01/04 07:49:35;;;;;;;0.10;0.10;;;;;;;12.63;72.12;99998.09;7358634;19;20114;-58
2023/01/04 07:52:01;;;;;;;0.10;0.10;;;;;;;12.63;72.22;100012.94;7357942;19;20410;-60
2023/01/04 07:54:27;;;;;;;0.10;0.10;;;;;;;12.65;72.62;100011.94;7359743;19;20010;-59
2023/01/04 07:56:52;;;;;;;0.10;0.10;;;;;;;12.66;72.26;100004.94;7355747;19;20014;-59
2023/01/04 07:59:19;;;;;;;0.10;0.10;;;;;;;12.68;72.39;100022.31;7353253;19;20010;-59
2023/01/04 08:01:46;;;;;;;0.10;0.10;;;;;;;12.68;72.08;100013.59;7359622;19;20086;-59
2023/01/04 08:04:13;;;;;;;0.00;0.00;;;;;;;12.68;71.93;100003.97;7357509;19;20588;-58
2023/01/04 08:06:40;;;;;;;0.00;0.00;;;;;;;12.68;72.24;100003.13;7351288;19;20635;-59
2023/01/04 08:09:05;;;;;;;0.00;0.00;;;;;;;12.69;72.15;100033.63;7347068;19;20006;-59
2023/01/04 08:11:31;;;;;;;0.10;0.10;;;;;;;12.71;71.65;100027.41;7348858;19;20724;-59
2023/01/04 08:13:57;;;;;;;0.10;0.10;;;;;;;12.70;71.91;100030.09;7344636;19;20017;-59
2023/01/04 08:16:30;;;;;;;0.10;0.10;;;;;;;12.71;72.09;100035.25;7356579;19;22246;-59
2023/01/04 08:19:01;;;;;;;0.10;0.10;;;;;;;12.71;72.38;100037.88;7356482;19;20018;-59
2023/01/04 08:21:32;;;;;;;0.05;0.05;;;;;;;12.72;72.35;100034.38;7359786;19;20027;-59
2023/01/04 08:23:58;;;;;;;0.10;0.10;;;;;;;12.64;71.76;100015.50;7357749;19;20039;-59
2023/01/04 08:26:23;;;;;;;0.10;0.10;;;;;;;12.73;72.16;100038.69;7333878;19;20011;-59
2023/01/04 08:28:49;;;;;;;0.10;0.10;;;;;;;12.73;72.33;100046.53;7364503;19;20354;-59
2023/01/04 08:31:17;;;;;;;0.10;0.10;;;;;;;12.67;72.48;100036.34;7365183;19;20074;-58
2023/01/04 08:33:44;;;;;;;0.05;0.05;;;;;;;12.76;72.31;100049.94;7361391;19;20463;-59
2023/01/04 08:36:24;;;;;;;0.08;0.08;;;;;;;12.77;72.67;100059.50;7362613;19;20719;-59
2023/01/04 08:38:52;;;;;;;0.10;0.10;;;;;;;12.72;72.21;100068.44;7360013;19;20019;-59
2023/01/04 08:41:18;;;;;;;0.08;0.08;;;;;;;12.71;72.32;100071.94;7364589;19;20533;-59
2023/01/04 08:43:44;;;;;;;0.08;0.08;;;;;;;12.69;72.53;100065.91;7359519;19;20117;-60
2023/01/04 08:46:11;;;;;;;0.10;0.10;;;;;;;12.64;72.01;100062.66;7360018;19;20010;-59
2023/01/04 08:48:37;;;;;;;0.00;0.00;;;;;;;12.71;71.97;100085.03;7357540;19;20011;-59
2023/01/04 08:51:06;;;;;;;0.00;0.00;;;;;;;12.71;72.12;100089.44;7360757;19;20020;-60
2023/01/04 08:53:32;;;;;;;0.10;0.10;;;;;;;12.70;72.04;100095.59;7357094;19;20046;-57
2023/01/04 08:55:59;;;;;;;0.10;0.10;;;;;;;12.69;72.33;100113.09;7363092;19;20468;-59
2023/01/04 08:58:26;;;;;;;0.03;0.03;;;;;;;12.68;72.01;100116.63;7358950;19;20014;-59
2023/01/04 09:00:51;;;;;;;0.10;0.10;;;;;;;12.70;71.80;100106.06;6661406;19;21837;-57
2023/01/04 09:03:17;;;;;;;0.10;0.10;;;;;;;12.70;72.22;100120.00;6841784;19;20021;-59
2023/01/04 09:05:43;;;;;;;0.10;0.10;;;;;;;12.70;71.49;100130.50;7364376;19;20039;-59
2023/01/04 09:08:09;;;;;;;0.00;0.00;;;;;;;12.71;71.45;100103.38;7361628;19;20052;-59
2023/01/04 09:10:37;;;;;;;0.08;0.08;;;;;;;12.76;71.26;100123.31;7360751;19;20078;-59
2023/01/04 09:13:03;;;;;;;0.00;0.00;;;;;;;12.75;70.87;100127.69;7358950;19;20430;-59
2023/01/04 09:15:28;;;;;;;0.10;0.10;;;;;;;12.73;71.13;100151.34;7363105;19;22400;-59
2023/01/04 09:17:53;;;;;;;0.00;0.00;;;;;;;12.75;71.10;100153.03;7359183;19;20569;-60
2023/01/04 09:20:19;;;;;;;0.10;0.10;;;;;;;12.80;71.14;100156.31;7359120;19;20009;-59
2023/01/04 09:22:44;;;;;;;0.10;0.10;;;;;;;12.78;70.42;100158.16;7361277;19;20010;-58
2023/01/04 09:25:10;;;;;;;0.08;0.08;;;;;;;12.80;70.52;100159.78;7364520;19;20780;-59
2023/01/04 09:27:35;;;;;;;0.00;0.00;;;;;;;12.81;70.28;100184.22;7362936;19;20003;-60
2023/01/04 09:30:00;;;;;;;0.00;0.00;;;;;;;12.82;70.22;100183.31;7364206;19;20044;-59
2023/01/04 09:32:26;;;;;;;0.10;0.10;;;;;;;12.81;70.13;100179.00;7358884;19;20053;-58
2023/01/04 09:34:52;;;;;;;0.10;0.10;;;;;;;12.78;70.03;100168.66;7360726;19;20017;-59
2023/01/04 09:37:17;;;;;;;0.10;0.10;;;;;;;12.82;70.50;100180.69;7357873;19;20545;-59
2023/01/04 09:39:43;;;;;;;0.00;0.00;;;;;;;12.83;70.55;100213.88;7352433;19;20021;-59
2023/01/04 09:42:32;;;;;;;0.10;0.10;;;;;;;12.81;70.90;100189.47;7361401;19;20006;-59
2023/01/04 09:45:14;;;;;;;0.10;0.10;;;;;;;12.84;70.59;100182.34;7360687;19;20025;-59
2023/01/04 09:47:42;;;;;;;0.10;0.10;;;;;;;12.85;70.59;100175.34;7358958;19;20006;-59
2023/01/04 09:50:29;;;;;;;0.10;0.10;;;;;;;12.86;70.99;100167.41;7360977;19;20011;-58
2023/01/04 09:53:13;;;;;;;0.10;0.10;;;;;;;12.82;71.07;100180.69;7362735;19;20617;-59
2023/01/04 09:55:44;;;;;;;0.00;0.00;;;;;;;12.88;70.53;100183.09;7363283;19;20463;-59
2023/01/04 09:58:23;;;;;;;0.10;0.10;;;;;;;12.92;70.56;100192.50;7357467;19;20018;-59
2023/01/04 10:00:58;;;;;;;0.10;0.10;;;;;;;12.89;70.69;100187.41;7359563;19;20030;-59
2023/01/04 10:03:29;;;;;;;0.00;0.00;;;;;;;12.96;70.45;100183.59;7359159;19;20531;-59
2023/01/04 10:05:55;;;;;;;0.10;0.10;;;;;;;12.95;70.56;100182.75;7362347;19;20038;-59
2023/01/04 10:08:21;;;;;;;0.05;0.05;;;;;;;12.99;70.64;100173.88;7360670;19;21382;-59
2023/01/04 10:11:02;;;;;;;0.00;0.00;;;;;;;13.04;70.76;100180.69;7358933;19;20006;-59
2023/01/04 10:13:39;;;;;;;0.10;0.10;;;;;;;13.06;70.50;100187.56;7362120;19;20450;-59
2023/01/04 10:16:05;;;;;;;;;;;;;;;13.12;70.69;100194.31;7360464;19;20813;-58
2023/01/04 10:18:57;;;;;;;0.00;0.00;;;;;;;13.13;70.01;100196.91;7357847;19;21460;-59
2023/01/04 10:21:54;;;;;;;0.10;0.10;;;;;;;13.16;70.24;100196.75;7254169;19;2004489;-59
2023/01/04 10:24:34;;;;;;;0.00;0.00;;;;;;;13.16;69.78;100198.53;7254646;19;2004535;-59
2023/01/04 10:27:17;;;;;;;0.03;0.03;;;;;;;13.19;69.85;100196.63;7354532;19;20010;-59
2023/01/04 10:30:04;;;;;;;0.00;0.00;;;;;;;13.24;69.89;100204.34;7360944;19;20011;-59
2023/01/04 10:32:44;;;;;;;0.10;0.10;;;;;;;13.27;69.96;100232.19;7362402;19;20017;-59
2023/01/04 10:35:22;;;;;;;0.10;0.10;;;;;;;13.26;69.58;100259.34;7360897;19;20518;-59
2023/01/04 10:37:55;;;;;;;0.10;0.10;;;;;;;13.27;69.41;100229.56;7358628;19;20450;-59
2023/01/04 10:40:20;;;;;;;0.00;0.00;;;;;;;13.22;69.66;100246.34;7354680;19;20107;-59
2023/01/04 10:42:51;;;;;;;0.10;0.10;;;;;;;13.23;69.31;100250.69;7358207;19;22297;-59
2023/01/04 10:45:30;;;;;;;0.10;0.10;;;;;;;13.24;69.52;100257.63;7359520;19;20027;-59
2023/01/04 10:48:17;;;;;;;0.10;0.10;;;;;;;13.27;69.34;100261.88;7358793;19;20121;-59
2023/01/04 10:50:47;;;;;;;0.10;0.10;;;;;;;13.28;69.00;100283.72;7357121;19;20010;-59
2023/01/04 10:53:31;;;;;;;0.03;0.03;;;;;;;13.30;68.94;100279.28;7361145;19;20010;-59
2023/01/04 10:56:03;;;;;;;0.05;0.05;;;;;;;13.30;68.51;100281.91;7355022;19;20030;-59
2023/01/04 10:58:46;;;;;;;0.10;0.10;;;;;;;13.33;68.58;100271.28;7355739;19;20014;-60
2023/01/04 11:01:28;;;;;;;0.10;0.10;;;;;;;13.32;68.66;100277.44;7354451;19;20038;-59
2023/01/04 11:04:04;;;;;;;0.00;0.00;;;;;;;13.34;68.74;100270.38;7355472;19;20041;-59
2023/01/04 11:06:38;;;;;;;0.00;0.00;;;;;;;13.32;68.46;100280.91;7353572;19;20014;-60
2023/01/04 11:09:11;;;;;;;0.00;0.00;;;;;;;13.29;68.41;100269.72;7353372;19;20007;-59
2023/01/04 11:11:41;;;;;;;0.08;0.08;;;;;;;13.32;68.34;100286.16;7354482;19;20110;-59
2023/01/04 11:14:07;;;;;;;0.10;0.10;;;;;;;13.32;68.65;100283.53;7362315;19;20007;-59
2023/01/04 11:16:32;;;;;;;0.10;0.10;;;;;;;13.35;67.81;100275.56;7359810;19;20022;-59
2023/01/04 11:18:58;;;;;;;0.00;0.00;;;;;;;13.37;68.12;100280.72;7361064;19;20510;-59
2023/01/04 11:21:31;;;;;;;0.10;0.10;;;;;;;13.37;67.88;100288.59;7354569;19;20006;-59
2023/01/04 11:24:03;;;;;;;0.10;0.10;;;;;;;13.37;68.15;100294.69;7357952;19;20014;-59
2023/01/04 11:26:42;;;;;;;0.10;0.10;;;;;;;13.39;67.78;100302.50;7360590;19;20010;-59
2023/01/04 11:29:16;;;;;;;0.10;0.10;;;;;;;13.41;68.12;100308.53;7358119;19;20029;-59
2023/01/04 11:31:55;;;;;;;0.10;0.10;;;;;;;13.41;67.99;100301.53;7360050;19;20582;-59
2023/01/04 11:34:43;;;;;;;0.08;0.08;;;;;;;13.43;68.73;100285.72;7352748;19;20031;-59
2023/01/04 11:37:26;;;;;;;0.00;0.00;;;;;;;13.48;68.25;100297.75;7350287;19;20006;-59
2023/01/04 11:40:09;;;;;;;0.03;0.03;;;;;;;13.50;67.38;100289.81;7353865;19;20787;-59
2023/01/04 11:42:34;;;;;;;0.10;0.10;;;;;;;13.52;67.52;100303.69;7352857;19;20007;-59
2023/01/04 11:45:00;;;;;;;0.00;0.00;;;;;;;13.56;67.40;100284.31;7361229;19;20016;-59
2023/01/04 11:47:27;;;;;;;0.10;0.10;;;;;;;13.57;67.35;100295.66;7358079;19;20021;-59
2023/01/04 11:49:53;;;;;;;0.10;0.10;;;;;;;13.53;67.61;100283.56;7359935;19;20769;-58
2023/01/04 11:52:31;;;;;;;0.10;0.10;;;;;;;13.61;67.47;100290.22;7360181;19;20467;-59
2023/01/04 11:55:21;;;;;;;0.03;0.03;;;;;;;13.55;67.51;100266.84;7360752;19;20041;-59
2023/01/04 11:57:47;;;;;;;0.10;0.10;;;;;;;13.63;67.35;100275.25;7358169;19;20086;-57
2023/01/04 12:00:16;;;;;;;0.03;0.03;;;;;;;13.67;67.64;100295.19;7355534;19;21982;-59
2023/01/04 12:02:41;;;;;;;0.10;0.10;;;;;;;13.66;66.86;100285.63;7360212;19;20003;-59
2023/01/04 12:05:19;;;;;;;0.00;0.00;;;;;;;13.74;67.71;100301.91;7359654;19;20002;-60
2023/01/04 12:07:45;;;;;;;0.00;0.00;;;;;;;13.72;67.23;100280.09;7356791;19;20050;-59
2023/01/04 12:10:23;;;;;;;0.10;0.10;;;;;;;13.77;67.51;100283.38;7358616;19;21372;-59
2023/01/04 12:12:48;;;;;;;0.10;0.10;;;;;;;13.71;67.70;100265.28;7359725;19;20006;-59
2023/01/04 12:15:21;;;;;;;0.00;0.00;;;;;;;13.93;67.46;100280.97;7358552;19;20100;-59
2023/01/04 12:17:58;;;;;;;0.10;0.10;;;;;;;13.99;67.04;100290.38;7357446;19;20399;-59
2023/01/04 12:20:28;;;;;;;0.00;0.00;;;;;;;14.05;66.93;100303.22;7359441;19;20882;-59